Date,TemperatureHighF,TemperatureAvgF,TemperatureLowF,DewpointHighF,DewpointAvgF,DewpointLowF,HumidityHigh,HumidityAvg,HumidityLow,PressureMaxIn,PressureMinIn,WindSpeedMaxMPH,WindSpeedAvgMPH,GustSpeedMaxMPH,PrecipitationSumIn
2014-2-1,37,25,15,28,16,-100,94,72,48,0.00,40.00,5,2,16,0.09
2014-2-2,38,31,25,30,27,24,97,85,65,0.00,40.00,5,4,17,0.11
2014-2-3,26,22,18,23,20,14,95,91,76,0.00,40.00,2,1,8,0.01
2014-2-4,28,18,11,15,12,8,89,79,58,0.00,40.00,4,2,10,0.07
2014-2-5,20,18,16,17,15,11,90,87,71,0.00,40.00,5,3,13,0.01
2014-2-6,21,9,3,11,1,-5,88,71,48,0.00,40.00,4,2,11,0.12
2014-2-7,18,10,3,6,2,-2,85,70,50,0.00,40.00,6,4,21,0.01
2014-2-8,19,9,1,0,-3,-8,68,57,42,0.00,40.00,8,4,25,0.00
2014-2-9,24,14,5,12,5,-2,87,68,44,0.00,40.00,4,2,10,0.09
2014-2-10,20,11,2,11,5,-2,87,79,59,0.00,40.00,4,3,14,0.02
2014-2-11,13,5,-2,3,-1,-8,84,73,55,0.00,40.00,4,3,13,0.00
2014-2-12,26,8,-13,-6,-10,-20,77,47,21,0.00,40.00,6,3,13,0.16
2014-2-13,26,20,9,25,18,3,95,90,75,0.00,40.00,9,5,23,0.02
2014-2-14,22,19,15,20,16,12,92,90,87,0.00,40.00,7,5,27,0.00
2014-2-15,28,22,17,25,18,-100,93,89,87,0.00,40.00,4,2,12,0.04
2014-2-16,18,12,4,15,6,-1,89,79,67,0.00,40.00,7,4,22,0.01
2014-2-17,19,6,-4,2,-6,-12,74,59,39,0.00,40.00,4,3,14,0.05
2014-2-18,21,14,1,19,7,-9,93,74,41,0.00,40.00,7,4,15,0.01
2014-2-19,31,22,12,30,20,9,98,90,79,0.00,40.00,5,2,16,0.00
2014-2-20,41,31,24,32,26,22,98,85,56,0.00,40.00,6,3,20,0.63
2014-2-21,33,30,29,32,30,28,98,97,95,0.00,40.00,3,1,9,0.81
2014-2-22,42,35,28,27,20,-100,88,58,43,0.00,40.00,6,3,25,0.46
2014-2-23,42,33,27,24,18,12,67,55,32,0.00,40.00,5,3,19,0.03
2014-2-24,26,17,11,13,9,1,84,72,47,0.00,40.00,7,5,23,0.01
2014-2-25,15,10,5,6,2,-2,84,70,55,0.00,40.00,7,4,18,0.01
2014-2-26,15,7,-1,7,-3,-15,82,65,31,0.00,40.00,6,3,23,0.00
2014-2-27,17,6,-7,4,-7,-16,81,57,39,0.00,40.00,6,4,19,0.00
2014-2-28,13,2,-10,-9,-13,-17,74,51,28,0.00,40.00,5,3,16,0.07